sensor_id;sensor_type;location;lat;lon;timestamp;P1;durP1;ratioP1;P2;durP2;ratioP2
48703;SDS011;34502;51.296;16.918;2022-10-16T00:00:31;27.45;;;23.42;;
48703;SDS011;34502;51.296;16.918;2022-10-16T00:02:58;27.92;;;25.00;;
48703;SDS011;34502;51.296;16.918;2022-10-16T00:05:24;27.95;;;24.88;;
48703;SDS011;34502;51.296;16.918;2022-10-16T00:07:50;27.95;;;24.27;;
48703;SDS011;34502;51.296;16.918;2022-10-16T00:10:16;26.13;;;22.20;;
48703;SDS011;34502;51.296;16.918;2022-10-16T00:12:42;24.67;;;22.02;;
48703;SDS011;34502;51.296;16.918;2022-10-16T00:15:08;25.08;;;22.35;;
48703;SDS011;34502;51.296;16.918;2022-10-16T00:17:35;27.40;;;22.27;;
48703;SDS011;34502;51.296;16.918;2022-10-16T00:20:01;26.40;;;22.25;;
48703;SDS011;34502;51.296;16.918;2022-10-16T00:22:27;25.85;;;21.98;;
48703;SDS011;34502;51.296;16.918;2022-10-16T00:24:53;25.73;;;22.83;;
48703;SDS011;34502;51.296;16.918;2022-10-16T00:27:19;23.98;;;21.30;;
48703;SDS011;34502;51.296;16.918;2022-10-16T00:29:49;27.05;;;21.00;;
48703;SDS011;34502;51.296;16.918;2022-10-16T00:32:16;26.23;;;21.30;;
48703;SDS011;34502;51.296;16.918;2022-10-16T00:34:43;30.10;;;20.50;;
48703;SDS011;34502;51.296;16.918;2022-10-16T00:37:09;23.70;;;19.38;;
48703;SDS011;34502;51.296;16.918;2022-10-16T00:39:35;23.38;;;19.45;;
48703;SDS011;34502;51.296;16.918;2022-10-16T00:42:01;22.15;;;18.77;;
48703;SDS011;34502;51.296;16.918;2022-10-16T00:47:21;24.98;;;19.08;;
48703;SDS011;34502;51.296;16.918;2022-10-16T00:50:09;22.58;;;18.55;;
48703;SDS011;34502;51.296;16.918;2022-10-16T00:52:47;21.63;;;17.60;;
48703;SDS011;34502;51.296;16.918;2022-10-16T00:55:14;20.65;;;16.50;;
48703;SDS011;34502;51.296;16.918;2022-10-16T00:57:40;20.80;;;17.75;;
48703;SDS011;34502;51.296;16.918;2022-10-16T01:00:08;22.35;;;16.75;;
48703;SDS011;34502;51.296;16.918;2022-10-16T01:02:35;20.35;;;17.90;;
48703;SDS011;34502;51.296;16.918;2022-10-16T01:05:02;17.98;;;15.43;;
48703;SDS011;34502;51.296;16.918;2022-10-16T01:07:37;16.90;;;15.20;;
48703;SDS011;34502;51.296;16.918;2022-10-16T01:10:18;20.17;;;15.60;;
48703;SDS011;34502;51.296;16.918;2022-10-16T01:12:50;16.65;;;14.85;;
48703;SDS011;34502;51.296;16.918;2022-10-16T01:15:29;15.52;;;13.88;;
48703;SDS011;34502;51.296;16.918;2022-10-16T01:18:39;18.40;;;14.25;;
48703;SDS011;34502;51.296;16.918;2022-10-16T01:23:48;17.52;;;13.95;;
48703;SDS011;34502;51.296;16.918;2022-10-16T01:28:58;14.80;;;13.18;;
48703;SDS011;34502;51.296;16.918;2022-10-16T01:31:31;15.02;;;12.98;;
48703;SDS011;34502;51.296;16.918;2022-10-16T01:34:00;16.58;;;12.20;;
48703;SDS011;34502;51.296;16.918;2022-10-16T01:36:49;14.38;;;12.32;;
48703;SDS011;34502;51.296;16.918;2022-10-16T01:39:22;14.55;;;12.25;;
48703;SDS011;34502;51.296;16.918;2022-10-16T01:41:52;16.30;;;12.02;;
48703;SDS011;34502;51.296;16.918;2022-10-16T01:44:22;13.65;;;12.15;;
48703;SDS011;34502;51.296;16.918;2022-10-16T01:46:51;13.18;;;11.75;;
48703;SDS011;34502;51.296;16.918;2022-10-16T01:49:18;12.82;;;11.45;;
48703;SDS011;34502;51.296;16.918;2022-10-16T01:51:46;13.27;;;11.80;;
48703;SDS011;34502;51.296;16.918;2022-10-16T01:54:14;14.55;;;12.23;;
48703;SDS011;34502;51.296;16.918;2022-10-16T01:56:42;12.70;;;11.35;;
48703;SDS011;34502;51.296;16.918;2022-10-16T01:59:15;12.40;;;10.93;;
48703;SDS011;34502;51.296;16.918;2022-10-16T02:01:45;14.75;;;10.85;;
48703;SDS011;34502;51.296;16.918;2022-10-16T02:04:24;11.55;;;9.93;;
48703;SDS011;34502;51.296;16.918;2022-10-16T02:06:59;11.77;;;9.88;;
48703;SDS011;34502;51.296;16.918;2022-10-16T02:09:25;11.75;;;9.40;;
48703;SDS011;34502;51.296;16.918;2022-10-16T02:11:52;11.90;;;9.80;;
48703;SDS011;34502;51.296;16.918;2022-10-16T02:14:19;11.48;;;10.27;;
48703;SDS011;34502;51.296;16.918;2022-10-16T02:16:49;10.88;;;9.40;;
48703;SDS011;34502;51.296;16.918;2022-10-16T02:19:16;11.07;;;9.07;;
48703;SDS011;34502;51.296;16.918;2022-10-16T02:21:58;15.45;;;9.25;;
48703;SDS011;34502;51.296;16.918;2022-10-16T02:24:39;11.77;;;9.27;;
48703;SDS011;34502;51.296;16.918;2022-10-16T02:30:04;10.80;;;9.45;;
48703;SDS011;34502;51.296;16.918;2022-10-16T02:32:41;9.77;;;8.77;;
48703;SDS011;34502;51.296;16.918;2022-10-16T02:35:08;11.52;;;10.32;;
48703;SDS011;34502;51.296;16.918;2022-10-16T02:37:35;11.25;;;9.07;;
48703;SDS011;34502;51.296;16.918;2022-10-16T02:40:02;10.65;;;9.60;;
48703;SDS011;34502;51.296;16.918;2022-10-16T02:42:33;9.32;;;8.38;;
48703;SDS011;34502;51.296;16.918;2022-10-16T02:45:00;11.18;;;9.02;;
48703;SDS011;34502;51.296;16.918;2022-10-16T02:47:27;10.18;;;9.18;;
48703;SDS011;34502;51.296;16.918;2022-10-16T02:49:53;9.38;;;8.02;;
48703;SDS011;34502;51.296;16.918;2022-10-16T02:52:19;11.95;;;8.88;;
48703;SDS011;34502;51.296;16.918;2022-10-16T02:54:45;12.25;;;8.77;;
48703;SDS011;34502;51.296;16.918;2022-10-16T02:57:11;12.23;;;8.68;;
48703;SDS011;34502;51.296;16.918;2022-10-16T02:59:37;9.43;;;8.52;;
48703;SDS011;34502;51.296;16.918;2022-10-16T03:02:03;11.23;;;8.23;;
48703;SDS011;34502;51.296;16.918;2022-10-16T03:04:30;10.23;;;9.23;;
48703;SDS011;34502;51.296;16.918;2022-10-16T03:06:56;13.73;;;9.85;;
48703;SDS011;34502;51.296;16.918;2022-10-16T03:09:22;9.40;;;8.50;;
48703;SDS011;34502;51.296;16.918;2022-10-16T03:11:48;10.27;;;8.65;;
48703;SDS011;34502;51.296;16.918;2022-10-16T03:14:14;10.38;;;9.20;;
48703;SDS011;34502;51.296;16.918;2022-10-16T03:16:40;15.05;;;8.57;;
48703;SDS011;34502;51.296;16.918;2022-10-16T03:19:06;10.82;;;8.68;;
48703;SDS011;34502;51.296;16.918;2022-10-16T03:21:32;10.32;;;8.93;;
48703;SDS011;34502;51.296;16.918;2022-10-16T03:23:58;9.30;;;8.27;;
48703;SDS011;34502;51.296;16.918;2022-10-16T03:26:24;11.35;;;8.32;;
48703;SDS011;34502;51.296;16.918;2022-10-16T03:28:50;11.05;;;9.45;;
48703;SDS011;34502;51.296;16.918;2022-10-16T03:31:16;12.55;;;8.80;;
48703;SDS011;34502;51.296;16.918;2022-10-16T03:33:42;12.25;;;9.93;;
48703;SDS011;34502;51.296;16.918;2022-10-16T03:36:08;9.38;;;8.45;;
48703;SDS011;34502;51.296;16.918;2022-10-16T03:38:34;11.07;;;8.88;;
48703;SDS011;34502;51.296;16.918;2022-10-16T03:41:00;10.27;;;9.00;;
48703;SDS011;34502;51.296;16.918;2022-10-16T03:43:26;9.25;;;8.23;;
48703;SDS011;34502;51.296;16.918;2022-10-16T03:45:52;9.35;;;8.35;;
48703;SDS011;34502;51.296;16.918;2022-10-16T03:48:19;9.32;;;8.43;;
48703;SDS011;34502;51.296;16.918;2022-10-16T03:50:45;16.15;;;8.90;;
48703;SDS011;34502;51.296;16.918;2022-10-16T03:53:13;10.00;;;8.63;;
48703;SDS011;34502;51.296;16.918;2022-10-16T03:55:43;10.15;;;9.05;;
48703;SDS011;34502;51.296;16.918;2022-10-16T03:58:09;10.48;;;9.45;;
48703;SDS011;34502;51.296;16.918;2022-10-16T04:00:36;9.77;;;8.55;;
48703;SDS011;34502;51.296;16.918;2022-10-16T04:03:06;10.57;;;9.48;;
48703;SDS011;34502;51.296;16.918;2022-10-16T04:05:32;10.93;;;9.38;;
48703;SDS011;34502;51.296;16.918;2022-10-16T04:07:58;10.13;;;9.20;;
48703;SDS011;34502;51.296;16.918;2022-10-16T04:10:24;11.10;;;8.98;;
48703;SDS011;34502;51.296;16.918;2022-10-16T04:12:50;10.07;;;9.07;;
48703;SDS011;34502;51.296;16.918;2022-10-16T04:15:16;13.23;;;9.85;;
48703;SDS011;34502;51.296;16.918;2022-10-16T04:17:42;10.40;;;9.30;;
48703;SDS011;34502;51.296;16.918;2022-10-16T04:20:09;10.73;;;9.63;;
48703;SDS011;34502;51.296;16.918;2022-10-16T04:22:35;11.18;;;9.25;;
48703;SDS011;34502;51.296;16.918;2022-10-16T04:25:01;10.13;;;9.05;;
48703;SDS011;34502;51.296;16.918;2022-10-16T04:27:27;13.93;;;9.07;;
48703;SDS011;34502;51.296;16.918;2022-10-16T04:29:56;12.00;;;9.35;;
48703;SDS011;34502;51.296;16.918;2022-10-16T04:32:22;11.65;;;10.38;;
48703;SDS011;34502;51.296;16.918;2022-10-16T04:34:48;10.73;;;9.00;;
48703;SDS011;34502;51.296;16.918;2022-10-16T04:37:14;9.93;;;8.93;;
48703;SDS011;34502;51.296;16.918;2022-10-16T04:39:40;10.73;;;9.63;;
48703;SDS011;34502;51.296;16.918;2022-10-16T04:42:06;9.48;;;8.57;;
48703;SDS011;34502;51.296;16.918;2022-10-16T04:44:32;13.30;;;9.98;;
48703;SDS011;34502;51.296;16.918;2022-10-16T04:46:58;10.75;;;9.75;;
48703;SDS011;34502;51.296;16.918;2022-10-16T04:49:25;11.05;;;9.95;;
48703;SDS011;34502;51.296;16.918;2022-10-16T04:51:51;11.75;;;9.80;;
48703;SDS011;34502;51.296;16.918;2022-10-16T04:54:17;12.70;;;9.30;;
48703;SDS011;34502;51.296;16.918;2022-10-16T04:56:43;12.05;;;9.35;;
48703;SDS011;34502;51.296;16.918;2022-10-16T04:59:13;11.07;;;9.05;;
48703;SDS011;34502;51.296;16.918;2022-10-16T05:01:39;10.07;;;9.07;;
48703;SDS011;34502;51.296;16.918;2022-10-16T05:04:05;11.88;;;8.88;;
48703;SDS011;34502;51.296;16.918;2022-10-16T05:06:32;11.02;;;9.95;;
48703;SDS011;34502;51.296;16.918;2022-10-16T05:08:58;10.20;;;8.98;;
48703;SDS011;34502;51.296;16.918;2022-10-16T05:11:24;10.40;;;9.27;;
48703;SDS011;34502;51.296;16.918;2022-10-16T05:13:50;10.35;;;9.25;;
48703;SDS011;34502;51.296;16.918;2022-10-16T05:16:16;14.35;;;8.90;;
48703;SDS011;34502;51.296;16.918;2022-10-16T05:18:42;11.05;;;8.75;;
48703;SDS011;34502;51.296;16.918;2022-10-16T05:21:08;11.20;;;9.15;;
48703;SDS011;34502;51.296;16.918;2022-10-16T05:23:34;11.05;;;9.95;;
48703;SDS011;34502;51.296;16.918;2022-10-16T05:26:00;11.40;;;9.50;;
48703;SDS011;34502;51.296;16.918;2022-10-16T05:28:27;10.10;;;9.05;;
48703;SDS011;34502;51.296;16.918;2022-10-16T05:30:55;9.52;;;8.52;;
48703;SDS011;34502;51.296;16.918;2022-10-16T05:33:21;9.95;;;8.95;;
48703;SDS011;34502;51.296;16.918;2022-10-16T05:35:49;10.60;;;9.60;;
48703;SDS011;34502;51.296;16.918;2022-10-16T05:38:15;14.50;;;9.63;;
48703;SDS011;34502;51.296;16.918;2022-10-16T05:40:42;15.50;;;9.20;;
48703;SDS011;34502;51.296;16.918;2022-10-16T05:43:08;10.85;;;9.85;;
48703;SDS011;34502;51.296;16.918;2022-10-16T05:45:34;10.55;;;9.25;;
48703;SDS011;34502;51.296;16.918;2022-10-16T05:48:00;11.15;;;10.13;;
48703;SDS011;34502;51.296;16.918;2022-10-16T05:50:26;11.30;;;10.00;;
48703;SDS011;34502;51.296;16.918;2022-10-16T05:52:52;12.98;;;10.52;;
48703;SDS011;34502;51.296;16.918;2022-10-16T05:55:18;11.40;;;9.18;;
48703;SDS011;34502;51.296;16.918;2022-10-16T05:57:44;10.02;;;9.13;;
48703;SDS011;34502;51.296;16.918;2022-10-16T06:00:11;9.55;;;8.70;;
48703;SDS011;34502;51.296;16.918;2022-10-16T06:02:37;10.65;;;9.55;;
48703;SDS011;34502;51.296;16.918;2022-10-16T06:05:03;13.02;;;9.75;;
48703;SDS011;34502;51.296;16.918;2022-10-16T06:07:33;9.90;;;8.82;;
48703;SDS011;34502;51.296;16.918;2022-10-16T06:10:00;11.15;;;9.68;;
48703;SDS011;34502;51.296;16.918;2022-10-16T06:12:26;11.02;;;9.75;;
48703;SDS011;34502;51.296;16.918;2022-10-16T06:14:53;10.50;;;9.40;;
48703;SDS011;34502;51.296;16.918;2022-10-16T06:17:19;10.45;;;9.45;;
48703;SDS011;34502;51.296;16.918;2022-10-16T06:19:45;10.63;;;9.52;;
48703;SDS011;34502;51.296;16.918;2022-10-16T06:22:11;9.98;;;8.77;;
48703;SDS011;34502;51.296;16.918;2022-10-16T06:24:37;10.73;;;9.02;;
48703;SDS011;34502;51.296;16.918;2022-10-16T06:27:03;10.43;;;9.05;;
48703;SDS011;34502;51.296;16.918;2022-10-16T06:29:29;9.35;;;8.45;;
48703;SDS011;34502;51.296;16.918;2022-10-16T06:31:56;9.02;;;8.02;;
48703;SDS011;34502;51.296;16.918;2022-10-16T06:34:22;8.55;;;7.75;;
48703;SDS011;34502;51.296;16.918;2022-10-16T06:36:48;8.98;;;8.05;;
48703;SDS011;34502;51.296;16.918;2022-10-16T06:39:14;8.45;;;7.63;;
48703;SDS011;34502;51.296;16.918;2022-10-16T06:41:40;14.70;;;9.05;;
48703;SDS011;34502;51.296;16.918;2022-10-16T06:44:06;8.68;;;7.78;;
48703;SDS011;34502;51.296;16.918;2022-10-16T06:46:32;12.48;;;8.13;;
48703;SDS011;34502;51.296;16.918;2022-10-16T06:48:59;8.55;;;7.75;;
48703;SDS011;34502;51.296;16.918;2022-10-16T06:51:25;8.27;;;7.47;;
48703;SDS011;34502;51.296;16.918;2022-10-16T06:53:52;8.20;;;7.47;;
48703;SDS011;34502;51.296;16.918;2022-10-16T06:56:22;9.80;;;7.63;;
48703;SDS011;34502;51.296;16.918;2022-10-16T06:58:49;7.68;;;6.97;;
48703;SDS011;34502;51.296;16.918;2022-10-16T07:01:16;7.65;;;6.95;;
48703;SDS011;34502;51.296;16.918;2022-10-16T07:03:44;8.30;;;7.20;;
48703;SDS011;34502;51.296;16.918;2022-10-16T07:06:12;8.23;;;7.35;;
48703;SDS011;34502;51.296;16.918;2022-10-16T07:08:41;7.35;;;6.65;;
48703;SDS011;34502;51.296;16.918;2022-10-16T07:11:12;7.35;;;6.65;;
48703;SDS011;34502;51.296;16.918;2022-10-16T07:13:41;8.02;;;7.25;;
48703;SDS011;34502;51.296;16.918;2022-10-16T07:16:10;7.60;;;6.90;;
48703;SDS011;34502;51.296;16.918;2022-10-16T07:18:40;7.07;;;6.47;;
48703;SDS011;34502;51.296;16.918;2022-10-16T07:21:09;7.07;;;6.38;;
48703;SDS011;34502;51.296;16.918;2022-10-16T07:23:37;7.32;;;6.63;;
48703;SDS011;34502;51.296;16.918;2022-10-16T07:26:04;6.93;;;6.22;;
48703;SDS011;34502;51.296;16.918;2022-10-16T07:28:30;7.63;;;6.93;;
48703;SDS011;34502;51.296;16.918;2022-10-16T07:31:00;6.80;;;6.20;;
48703;SDS011;34502;51.296;16.918;2022-10-16T07:33:27;6.50;;;5.90;;
48703;SDS011;34502;51.296;16.918;2022-10-16T07:35:53;8.13;;;6.40;;
48703;SDS011;34502;51.296;16.918;2022-10-16T07:38:20;6.70;;;6.10;;
48703;SDS011;34502;51.296;16.918;2022-10-16T07:40:47;6.38;;;5.78;;
48703;SDS011;34502;51.296;16.918;2022-10-16T07:43:13;6.78;;;6.10;;
48703;SDS011;34502;51.296;16.918;2022-10-16T07:45:48;5.82;;;5.22;;
48703;SDS011;34502;51.296;16.918;2022-10-16T07:48:15;7.03;;;5.60;;
48703;SDS011;34502;51.296;16.918;2022-10-16T07:50:42;6.40;;;5.80;;
48703;SDS011;34502;51.296;16.918;2022-10-16T07:53:08;6.78;;;6.07;;
48703;SDS011;34502;51.296;16.918;2022-10-16T07:55:35;7.30;;;5.93;;
48703;SDS011;34502;51.296;16.918;2022-10-16T07:58:01;5.82;;;5.22;;
48703;SDS011;34502;51.296;16.918;2022-10-16T08:00:27;6.88;;;5.63;;
48703;SDS011;34502;51.296;16.918;2022-10-16T08:02:53;6.40;;;5.80;;
48703;SDS011;34502;51.296;16.918;2022-10-16T08:05:19;6.43;;;5.82;;
48703;SDS011;34502;51.296;16.918;2022-10-16T08:07:49;6.85;;;6.15;;
48703;SDS011;34502;51.296;16.918;2022-10-16T08:10:16;5.93;;;5.30;;
48703;SDS011;34502;51.296;16.918;2022-10-16T08:12:43;5.72;;;4.97;;
48703;SDS011;34502;51.296;16.918;2022-10-16T08:15:09;6.90;;;5.25;;
48703;SDS011;34502;51.296;16.918;2022-10-16T08:17:35;5.88;;;5.38;;
48703;SDS011;34502;51.296;16.918;2022-10-16T08:20:01;6.10;;;5.53;;
48703;SDS011;34502;51.296;16.918;2022-10-16T08:22:28;6.85;;;5.57;;
48703;SDS011;34502;51.296;16.918;2022-10-16T08:24:54;6.57;;;5.97;;
48703;SDS011;34502;51.296;16.918;2022-10-16T08:27:20;7.00;;;5.43;;
48703;SDS011;34502;51.296;16.918;2022-10-16T08:29:48;8.10;;;6.25;;
48703;SDS011;34502;51.296;16.918;2022-10-16T08:32:14;6.50;;;5.68;;
48703;SDS011;34502;51.296;16.918;2022-10-16T08:34:40;7.25;;;5.28;;
48703;SDS011;34502;51.296;16.918;2022-10-16T08:37:06;5.70;;;5.20;;
48703;SDS011;34502;51.296;16.918;2022-10-16T08:39:36;6.97;;;4.80;;
48703;SDS011;34502;51.296;16.918;2022-10-16T08:42:05;5.63;;;4.70;;
48703;SDS011;34502;51.296;16.918;2022-10-16T08:44:55;4.57;;;4.20;;
48703;SDS011;34502;51.296;16.918;2022-10-16T08:50:52;6.38;;;4.50;;
48703;SDS011;34502;51.296;16.918;2022-10-16T08:53:30;4.97;;;4.45;;
48703;SDS011;34502;51.296;16.918;2022-10-16T08:56:02;4.43;;;4.00;;
48703;SDS011;34502;51.296;16.918;2022-10-16T08:58:29;4.63;;;4.07;;
48703;SDS011;34502;51.296;16.918;2022-10-16T09:00:57;4.05;;;3.58;;
48703;SDS011;34502;51.296;16.918;2022-10-16T09:06:17;3.25;;;2.95;;
48703;SDS011;34502;51.296;16.918;2022-10-16T09:09:27;6.68;;;3.72;;
48703;SDS011;34502;51.296;16.918;2022-10-16T09:11:53;3.35;;;3.05;;
48703;SDS011;34502;51.296;16.918;2022-10-16T09:14:46;3.20;;;2.97;;
48703;SDS011;34502;51.296;16.918;2022-10-16T09:20:18;4.65;;;2.10;;
48703;SDS011;34502;51.296;16.918;2022-10-16T09:23:09;2.53;;;2.33;;
48703;SDS011;34502;51.296;16.918;2022-10-16T09:25:43;2.30;;;2.10;;
48703;SDS011;34502;51.296;16.918;2022-10-16T09:28:14;2.42;;;2.22;;
48703;SDS011;34502;51.296;16.918;2022-10-16T09:30:41;3.53;;;2.40;;
48703;SDS011;34502;51.296;16.918;2022-10-16T09:33:07;3.75;;;2.00;;
48703;SDS011;34502;51.296;16.918;2022-10-16T09:35:36;2.55;;;1.95;;
48703;SDS011;34502;51.296;16.918;2022-10-16T09:38:24;3.58;;;1.70;;
48703;SDS011;34502;51.296;16.918;2022-10-16T09:40:52;2.90;;;1.85;;
48703;SDS011;34502;51.296;16.918;2022-10-16T09:46:05;2.40;;;2.20;;
48703;SDS011;34502;51.296;16.918;2022-10-16T09:48:44;4.97;;;1.92;;
48703;SDS011;34502;51.296;16.918;2022-10-16T09:51:16;3.70;;;1.98;;
48703;SDS011;34502;51.296;16.918;2022-10-16T09:53:46;3.20;;;2.05;;
48703;SDS011;34502;51.296;16.918;2022-10-16T09:56:20;2.72;;;2.15;;
48703;SDS011;34502;51.296;16.918;2022-10-16T09:59:01;2.15;;;2.05;;
48703;SDS011;34502;51.296;16.918;2022-10-16T10:01:37;4.20;;;2.38;;
48703;SDS011;34502;51.296;16.918;2022-10-16T10:04:05;3.15;;;2.05;;
48703;SDS011;34502;51.296;16.918;2022-10-16T10:11:52;3.42;;;2.35;;
48703;SDS011;34502;51.296;16.918;2022-10-16T10:14:35;3.53;;;2.15;;
48703;SDS011;34502;51.296;16.918;2022-10-16T10:17:20;2.42;;;2.22;;
48703;SDS011;34502;51.296;16.918;2022-10-16T10:25:12;2.33;;;2.13;;
48703;SDS011;34502;51.296;16.918;2022-10-16T10:33:30;3.10;;;2.40;;
48703;SDS011;34502;51.296;16.918;2022-10-16T10:36:30;3.13;;;2.35;;
48703;SDS011;34502;51.296;16.918;2022-10-16T10:39:11;3.88;;;2.55;;
48703;SDS011;34502;51.296;16.918;2022-10-16T10:41:57;2.80;;;2.50;;
48703;SDS011;34502;51.296;16.918;2022-10-16T10:45:07;2.75;;;2.13;;
48703;SDS011;34502;51.296;16.918;2022-10-16T10:48:06;2.25;;;2.13;;
48703;SDS011;34502;51.296;16.918;2022-10-16T10:51:43;3.83;;;2.20;;
48703;SDS011;34502;51.296;16.918;2022-10-16T10:57:09;2.65;;;2.45;;
48703;SDS011;34502;51.296;16.918;2022-10-16T11:00:02;2.42;;;2.22;;
48703;SDS011;34502;51.296;16.918;2022-10-16T11:02:36;2.08;;;1.98;;
48703;SDS011;34502;51.296;16.918;2022-10-16T11:05:14;4.97;;;2.10;;
48703;SDS011;34502;51.296;16.918;2022-10-16T11:07:48;2.55;;;2.35;;
48703;SDS011;34502;51.296;16.918;2022-10-16T11:10:27;2.28;;;2.10;;
48703;SDS011;34502;51.296;16.918;2022-10-16T11:13:18;2.47;;;2.28;;
48703;SDS011;34502;51.296;16.918;2022-10-16T11:15:57;2.45;;;2.25;;
48703;SDS011;34502;51.296;16.918;2022-10-16T11:18:58;2.00;;;1.90;;
48703;SDS011;34502;51.296;16.918;2022-10-16T11:21:24;3.78;;;2.17;;
48703;SDS011;34502;51.296;16.918;2022-10-16T11:23:57;2.85;;;2.30;;
48703;SDS011;34502;51.296;16.918;2022-10-16T11:26:34;2.10;;;1.90;;
48703;SDS011;34502;51.296;16.918;2022-10-16T11:29:03;2.50;;;2.30;;
48703;SDS011;34502;51.296;16.918;2022-10-16T11:31:38;2.60;;;1.88;;
48703;SDS011;34502;51.296;16.918;2022-10-16T11:34:09;1.98;;;1.88;;
48703;SDS011;34502;51.296;16.918;2022-10-16T11:36:49;3.92;;;2.22;;
48703;SDS011;34502;51.296;16.918;2022-10-16T11:39:45;6.57;;;1.90;;
48703;SDS011;34502;51.296;16.918;2022-10-16T11:44:50;3.28;;;2.60;;
48703;SDS011;34502;51.296;16.918;2022-10-16T11:50:24;2.40;;;1.83;;
48703;SDS011;34502;51.296;16.918;2022-10-16T11:55:27;2.50;;;1.85;;
48703;SDS011;34502;51.296;16.918;2022-10-16T11:58:01;1.95;;;1.60;;
48703;SDS011;34502;51.296;16.918;2022-10-16T12:00:56;2.15;;;1.45;;
48703;SDS011;34502;51.296;16.918;2022-10-16T12:06:22;1.70;;;1.60;;
48703;SDS011;34502;51.296;16.918;2022-10-16T12:09:01;3.13;;;1.42;;
48703;SDS011;34502;51.296;16.918;2022-10-16T12:16:53;2.40;;;2.20;;
48703;SDS011;34502;51.296;16.918;2022-10-16T12:19:20;2.13;;;2.00;;
48703;SDS011;34502;51.296;16.918;2022-10-16T12:21:49;3.65;;;2.00;;
48703;SDS011;34502;51.296;16.918;2022-10-16T12:24:32;2.00;;;1.90;;
48703;SDS011;34502;51.296;16.918;2022-10-16T12:27:02;2.75;;;2.55;;
48703;SDS011;34502;51.296;16.918;2022-10-16T12:29:37;2.60;;;2.20;;
48703;SDS011;34502;51.296;16.918;2022-10-16T12:32:05;3.60;;;2.45;;
48703;SDS011;34502;51.296;16.918;2022-10-16T12:34:53;2.78;;;2.28;;
48703;SDS011;34502;51.296;16.918;2022-10-16T12:37:20;2.47;;;2.28;;
48703;SDS011;34502;51.296;16.918;2022-10-16T12:39:51;2.28;;;2.08;;
48703;SDS011;34502;51.296;16.918;2022-10-16T12:42:23;2.33;;;2.10;;
48703;SDS011;34502;51.296;16.918;2022-10-16T12:44:52;3.58;;;2.08;;
48703;SDS011;34502;51.296;16.918;2022-10-16T12:47:38;2.75;;;1.77;;
48703;SDS011;34502;51.296;16.918;2022-10-16T12:50:48;3.78;;;1.73;;
48703;SDS011;34502;51.296;16.918;2022-10-16T12:53:21;2.15;;;1.92;;
48703;SDS011;34502;51.296;16.918;2022-10-16T12:58:27;2.13;;;1.92;;
48703;SDS011;34502;51.296;16.918;2022-10-16T13:01:11;2.85;;;1.80;;
48703;SDS011;34502;51.296;16.918;2022-10-16T13:03:50;3.08;;;1.90;;
48703;SDS011;34502;51.296;16.918;2022-10-16T13:12:38;2.33;;;2.13;;
48703;SDS011;34502;51.296;16.918;2022-10-16T13:18:11;4.45;;;2.10;;
48703;SDS011;34502;51.296;16.918;2022-10-16T13:23:49;3.40;;;1.75;;
48703;SDS011;34502;51.296;16.918;2022-10-16T13:26:22;3.13;;;1.80;;
48703;SDS011;34502;51.296;16.918;2022-10-16T13:29:08;2.22;;;1.83;;
48703;SDS011;34502;51.296;16.918;2022-10-16T13:31:36;1.90;;;1.80;;
48703;SDS011;34502;51.296;16.918;2022-10-16T13:34:03;4.07;;;1.75;;
48703;SDS011;34502;51.296;16.918;2022-10-16T13:36:35;3.90;;;2.22;;
48703;SDS011;34502;51.296;16.918;2022-10-16T13:41:39;2.28;;;2.08;;
48703;SDS011;34502;51.296;16.918;2022-10-16T13:44:13;3.45;;;2.10;;
48703;SDS011;34502;51.296;16.918;2022-10-16T13:46:41;2.35;;;2.15;;
48703;SDS011;34502;51.296;16.918;2022-10-16T13:49:14;2.90;;;2.20;;
48703;SDS011;34502;51.296;16.918;2022-10-16T13:51:41;2.20;;;2.10;;
48703;SDS011;34502;51.296;16.918;2022-10-16T13:54:18;4.90;;;2.35;;
48703;SDS011;34502;51.296;16.918;2022-10-16T13:56:44;3.17;;;2.88;;
48703;SDS011;34502;51.296;16.918;2022-10-16T14:02:15;6.45;;;3.00;;
48703;SDS011;34502;51.296;16.918;2022-10-16T14:04:45;2.72;;;2.53;;
48703;SDS011;34502;51.296;16.918;2022-10-16T14:07:24;2.78;;;2.58;;
48703;SDS011;34502;51.296;16.918;2022-10-16T14:09:52;4.45;;;2.67;;
48703;SDS011;34502;51.296;16.918;2022-10-16T14:12:19;4.90;;;3.33;;
48703;SDS011;34502;51.296;16.918;2022-10-16T14:14:46;3.42;;;3.13;;
48703;SDS011;34502;51.296;16.918;2022-10-16T14:17:30;3.28;;;2.97;;
48703;SDS011;34502;51.296;16.918;2022-10-16T14:19:58;3.10;;;2.72;;
48703;SDS011;34502;51.296;16.918;2022-10-16T14:22:42;4.07;;;2.92;;
48703;SDS011;34502;51.296;16.918;2022-10-16T14:28:02;4.20;;;3.47;;
48703;SDS011;34502;51.296;16.918;2022-10-16T14:30:35;3.83;;;3.03;;
48703;SDS011;34502;51.296;16.918;2022-10-16T14:33:03;2.95;;;2.75;;
48703;SDS011;34502;51.296;16.918;2022-10-16T14:35:43;3.33;;;2.65;;
48703;SDS011;34502;51.296;16.918;2022-10-16T14:38:18;2.90;;;2.70;;
48703;SDS011;34502;51.296;16.918;2022-10-16T14:40:47;3.03;;;2.47;;
48703;SDS011;34502;51.296;16.918;2022-10-16T14:43:14;2.80;;;2.60;;
48703;SDS011;34502;51.296;16.918;2022-10-16T14:45:51;5.47;;;2.83;;
48703;SDS011;34502;51.296;16.918;2022-10-16T14:48:18;8.82;;;3.33;;
48703;SDS011;34502;51.296;16.918;2022-10-16T14:50:45;3.25;;;2.95;;
48703;SDS011;34502;51.296;16.918;2022-10-16T14:53:11;2.83;;;2.63;;
48703;SDS011;34502;51.296;16.918;2022-10-16T14:55:38;3.95;;;3.55;;
48703;SDS011;34502;51.296;16.918;2022-10-16T14:58:05;4.25;;;3.58;;
48703;SDS011;34502;51.296;16.918;2022-10-16T15:00:34;3.75;;;3.25;;
48703;SDS011;34502;51.296;16.918;2022-10-16T15:03:00;4.20;;;3.85;;
48703;SDS011;34502;51.296;16.918;2022-10-16T15:05:26;3.83;;;3.50;;
48703;SDS011;34502;51.296;16.918;2022-10-16T15:07:53;4.20;;;3.80;;
48703;SDS011;34502;51.296;16.918;2022-10-16T15:10:20;7.50;;;4.05;;
48703;SDS011;34502;51.296;16.918;2022-10-16T15:12:47;4.10;;;3.67;;
48703;SDS011;34502;51.296;16.918;2022-10-16T15:17:58;6.65;;;3.88;;
48703;SDS011;34502;51.296;16.918;2022-10-16T15:20:26;4.40;;;4.00;;
48703;SDS011;34502;51.296;16.918;2022-10-16T15:22:53;7.65;;;4.82;;
48703;SDS011;34502;51.296;16.918;2022-10-16T15:28:19;5.28;;;4.07;;
48703;SDS011;34502;51.296;16.918;2022-10-16T15:30:46;5.30;;;4.45;;
48703;SDS011;34502;51.296;16.918;2022-10-16T15:33:15;5.10;;;3.75;;
48703;SDS011;34502;51.296;16.918;2022-10-16T15:35:53;4.15;;;3.75;;
48703;SDS011;34502;51.296;16.918;2022-10-16T15:38:20;4.95;;;4.38;;
48703;SDS011;34502;51.296;16.918;2022-10-16T15:40:47;5.05;;;3.83;;
48703;SDS011;34502;51.296;16.918;2022-10-16T15:43:14;5.47;;;3.85;;
48703;SDS011;34502;51.296;16.918;2022-10-16T15:45:40;3.55;;;3.25;;
48703;SDS011;34502;51.296;16.918;2022-10-16T15:48:09;5.18;;;3.35;;
48703;SDS011;34502;51.296;16.918;2022-10-16T15:50:37;3.10;;;2.90;;
48703;SDS011;34502;51.296;16.918;2022-10-16T15:53:04;3.97;;;3.35;;
48703;SDS011;34502;51.296;16.918;2022-10-16T15:55:30;4.78;;;3.17;;
48703;SDS011;34502;51.296;16.918;2022-10-16T15:57:56;3.83;;;3.53;;
48703;SDS011;34502;51.296;16.918;2022-10-16T16:00:22;6.72;;;4.68;;
48703;SDS011;34502;51.296;16.918;2022-10-16T16:02:51;11.55;;;7.32;;
48703;SDS011;34502;51.296;16.918;2022-10-16T16:05:18;7.13;;;6.15;;
48703;SDS011;34502;51.296;16.918;2022-10-16T16:07:45;9.80;;;7.97;;
48703;SDS011;34502;51.296;16.918;2022-10-16T16:10:11;11.65;;;9.02;;
48703;SDS011;34502;51.296;16.918;2022-10-16T16:12:37;21.20;;;12.23;;
48703;SDS011;34502;51.296;16.918;2022-10-16T16:15:04;14.50;;;12.95;;